Temirtau, Kazakhstan
Current Conditions -  °F | °C
As of 2:00 AM on Tuesday 23 Dec 2014 (Local Time) from UAKK Reporting Station
Clear Clear  
Wind Chill: -9°   Ceiling: Unl
Heat Index:   Visibility: 6mi
Dew Point:   Wind: 7mph
Humidity: 85%   Direction: 70°ENE
Pressure: 30.12"   Gusts: NA
Location:  50.07°N, 72.96°E
Report Text: UAKK 222000Z 07003MPS CAVOK M16/M18 Q1020 R05/410560 NOSIG RMKQFE717/0956
Loading
Personal Weather Stations






























Interactive Weather Map New forecast layout! Learn more

10-Day Weather Forecast

Advertisements
Track Severe Weather on mobile